AirNav   Everest Fuels
 
 680 users online  

15LA Willis-Knighton South Hospital Heliport
Shreveport, Louisiana, USA

GOING TO SHREVEPORT?


FAA INFORMATION EFFECTIVE 28 MARCH 2019

Location

FAA Identifier: 15LA
Lat/Long: 32-24-10.5000N / 093-47-55.3000W
32-24.175000N / 093-47.921667W
32.4029167 / -93.7986944
(estimated)
Elevation: 213 ft. / 65 m (estimated)
From city: 9 miles SSW of SHREVEPORT, LA
Time zone: UTC -5 (UTC -6 during Standard Time)
Zip code: 71118

Heliport Operations

Heliport use: Private use. Permission required prior to landing
Activation date: 10/2016
Control tower: no
ARTCC: FORT WORTH CENTER
FSS: DE RIDDER FLIGHT SERVICE STATION
Attendance: UNATNDD
Wind indicator: yes
Segmented circle: no

Heliport Communications

WX ASOS at SHV (3 nm NW): PHONE 318-636-5767
WX ASOS at DTN (9 nm N): 118.525 (318-425-7967)
WX AWOS-3PT at 3F3 (20 nm S): 119.125 (318-872-3537)

Nearby radio navigation aids

VOR radial/distance  VOR name  Freq  Var
EMGr264/10.3ELM GROVE VORTAC111.2007E
EICr172/22.1BELCHER VORTAC117.4007E

 
NDB name  Hdg/Dist  Freq  Var  ID
MANSFIELD351/20.441404EMSD -- ... -..
CARTHAGE058/28.633204ERPF .-. .--. ..-.
AMASON024/38.734104ECZJ -.-. --.. .---

Heliport Services

Runway Information

Helipad H1

Dimensions: 40 x 40 ft. / 12 x 12 m
Surface: concrete
Runway edge lights: PERI
Traffic pattern: leftleft

Heliport Ownership and Management from official FAA records

Ownership: Privately-owned
Owner: WILLIS-KNIGHTON SOUTH HOSPITAL
2510 BERT KOONS IND. LOOP
SHREVEPORT, LA 71118
Phone 318-212-5000
Manager: KERI ELROD
2510 BERT KOONS IND. LOOP
SHREVEPORT, LA 71118
Phone 318-212-5000

Instrument Procedures

There are no published instrument procedures at 15LA.

Some nearby airports with instrument procedures:

KSHV - Shreveport Regional Airport (3 nm NW)
KDTN - Shreveport Downtown Airport (9 nm N)
KBAD - Barksdale Air Force Base (9 nm NE)
3F3 - C E 'Rusty' Williams Airport (20 nm S)
KASL - Harrison County Airport (27 nm W)
 
Loc | Ops | Rwys | IFR | FBO | Links
Com | Nav | Svcs | Stats | Notes
Aerial photo
No photo
 
Airport distance calculator
Flying to Willis-Knighton South Hospital Heliport? Find the distance to fly.

From to 15LA

Sunrise and sunset
Times for 20-Apr-2019
 Local
(UTC-5)
 Zulu
(UTC)
Morning civil twilight06:1611:16
Sunrise06:4111:41
Sunset19:4700:47
Evening civil twilight20:1301:13

Current date and time
Zulu (UTC)  21-Apr-2019 03:07:53
Local (UTC-5)  20-Apr-2019 22:07:53
 
METAR
KSHV 
3nm NW 
210256Z 00000KT 10SM CLR 14/08 A2999 RMK AO2 SLP154 T01440083 53007
KBAD 
9nm NE 
210256Z AUTO 00000KT 10SM CLR 13/10 A3000 RMK AO2 SLP161 T01310101 53008
KDTN 
9nm N 
210253Z AUTO 00000KT 10SM CLR 16/09 A3000 RMK AO2 SLP157 T01560089 53008
K3F3 
20nm S 
210255Z AUTO 15007KT 10SM CLR 14/10 A3005 RMK AO2 T01380102
TAF
KSHV 
3nm NW 
201720Z 2018/2118 32008KT P6SM SKC FM210000 VRB03KT P6SM SKC FM211500 19008KT P6SM SKC
KBAD 
9nm NE 
210200Z 2102/2208 18005KT 9999 SKC QNH2997INS BECMG 2115/2116 19012G20KT 9999 SKC QNH2995INS BECMG 2123/2124 20008KT 9999 FEW250 QNH2998INS TX25/2122Z TN07/2112Z
NOTAMs
Click for the latest NOTAMs
NOTAMs are issued by the DoD/FAA and will open in a separate window not controlled by AirNav.

 

 
 

Would you like to see your business listed on this page?

 If your business provides an interesting product or service to pilots, flight crews, aircraft, or users of the Willis-Knighton South Hospital Heliport, you should consider listing it here.  To start the listing process, click on the button below
 
Add a business
 

Other Pages about Willis-Knighton South Hospital Heliport

Update a link
 
Copyright © AirNav, LLC. All rights reserved. Privacy Policy  Contact